Archival Weather

Chicago O'Hare International

Chicago, Illinois (KORD)

Report from: Saturday, May 20, 2023 12:51 PM CDT
Current time: Sunday, February 25, 2024 4:44 PM CST

Current weather – Weather history – Daily summaries
Weather forecast

Temperature18.9°C (66.0°F)
Dew point6.1°C (43.0°F)
Winds 9 kts (4.6 m/s, 10.4 mph) North (350°)
Wind gusts 17 kts (8.7 m/s, 19.6 mph)
Visibility10 mi. (16.1 km)
Clouds Few clouds 4,400 ft. (1,341 m)
Altimeter30.15 in.Hg (1021 mB)
Relative humidity43 %
Density altitude335 ft. (102 m)
Sea-level pressure102.1 kPa (1021 mB, 30.15 in.Hg)
Max temp last 6 hours19.4°C (66.9°F)
Min temp last 6 hours10.0°C (50.0°F)
Remarks Automated weather observing station with precipitation discriminator
Pressure falling more quickly
Flight conditions Visual Meteorological Conditions
Raw dataKORD 201751Z 35009G17KT 10SM FEW044 19/06 A3015 RMK AO2 SLP210 T01890061 10194 20100 58003
An error has occurred. This application may no longer respond until reloaded. Reload 🗙